sensor_id;sensor_type;location;lat;lon;timestamp;P1;durP1;ratioP1;P2;durP2;ratioP2
3249;SDS011;1637;42.020;23.992;2023-04-25T00:01:53;2.30;;;1.50;;
3249;SDS011;1637;42.020;23.992;2023-04-25T00:04:19;3.70;;;1.80;;
3249;SDS011;1637;42.020;23.992;2023-04-25T00:06:48;2.50;;;1.93;;
3249;SDS011;1637;42.020;23.992;2023-04-25T00:09:17;2.07;;;1.70;;
3249;SDS011;1637;42.020;23.992;2023-04-25T00:11:44;4.07;;;2.33;;
3249;SDS011;1637;42.020;23.992;2023-04-25T00:14:10;3.03;;;2.37;;
3249;SDS011;1637;42.020;23.992;2023-04-25T00:16:37;2.17;;;1.73;;
3249;SDS011;1637;42.020;23.992;2023-04-25T00:19:06;1.90;;;1.70;;
3249;SDS011;1637;42.020;23.992;2023-04-25T00:21:33;2.73;;;1.77;;
3249;SDS011;1637;42.020;23.992;2023-04-25T00:24:02;5.60;;;2.20;;
3249;SDS011;1637;42.020;23.992;2023-04-25T00:26:29;4.87;;;2.80;;
3249;SDS011;1637;42.020;23.992;2023-04-25T00:28:55;4.93;;;3.13;;
3249;SDS011;1637;42.020;23.992;2023-04-25T00:31:22;2.40;;;1.73;;
3249;SDS011;1637;42.020;23.992;2023-04-25T00:33:49;5.97;;;2.33;;
3249;SDS011;1637;42.020;23.992;2023-04-25T00:36:16;5.27;;;2.50;;
3249;SDS011;1637;42.020;23.992;2023-04-25T00:38:43;3.47;;;2.30;;
3249;SDS011;1637;42.020;23.992;2023-04-25T00:41:11;2.20;;;1.70;;
3249;SDS011;1637;42.020;23.992;2023-04-25T00:43:38;2.30;;;1.80;;
3249;SDS011;1637;42.020;23.992;2023-04-25T00:46:06;2.03;;;1.63;;
3249;SDS011;1637;42.020;23.992;2023-04-25T00:48:33;2.03;;;1.77;;
3249;SDS011;1637;42.020;23.992;2023-04-25T00:51:00;3.10;;;2.00;;
3249;SDS011;1637;42.020;23.992;2023-04-25T00:53:27;2.40;;;1.57;;
3249;SDS011;1637;42.020;23.992;2023-04-25T00:55:57;6.50;;;3.40;;
3249;SDS011;1637;42.020;23.992;2023-04-25T00:58:26;5.03;;;3.33;;
3249;SDS011;1637;42.020;23.992;2023-04-25T01:00:53;5.67;;;3.60;;
3249;SDS011;1637;42.020;23.992;2023-04-25T01:03:21;4.23;;;3.10;;
3249;SDS011;1637;42.020;23.992;2023-04-25T01:05:49;4.20;;;3.00;;
3249;SDS011;1637;42.020;23.992;2023-04-25T01:08:17;4.83;;;3.30;;
3249;SDS011;1637;42.020;23.992;2023-04-25T01:10:43;5.30;;;3.57;;
3249;SDS011;1637;42.020;23.992;2023-04-25T01:13:10;5.10;;;2.57;;
3249;SDS011;1637;42.020;23.992;2023-04-25T01:15:38;3.53;;;2.20;;
3249;SDS011;1637;42.020;23.992;2023-04-25T01:18:05;3.40;;;2.00;;
3249;SDS011;1637;42.020;23.992;2023-04-25T01:20:33;2.53;;;2.00;;
3249;SDS011;1637;42.020;23.992;2023-04-25T01:23:02;3.30;;;2.53;;
3249;SDS011;1637;42.020;23.992;2023-04-25T01:25:29;3.50;;;2.20;;
3249;SDS011;1637;42.020;23.992;2023-04-25T01:27:56;5.73;;;2.90;;
3249;SDS011;1637;42.020;23.992;2023-04-25T01:30:24;7.10;;;3.00;;
3249;SDS011;1637;42.020;23.992;2023-04-25T01:32:52;2.97;;;2.00;;
3249;SDS011;1637;42.020;23.992;2023-04-25T01:35:21;1.60;;;1.43;;
3249;SDS011;1637;42.020;23.992;2023-04-25T01:37:50;4.60;;;1.90;;
3249;SDS011;1637;42.020;23.992;2023-04-25T01:40:19;4.70;;;2.20;;
3249;SDS011;1637;42.020;23.992;2023-04-25T01:42:47;2.53;;;2.17;;
3249;SDS011;1637;42.020;23.992;2023-04-25T01:45:14;3.90;;;2.00;;
3249;SDS011;1637;42.020;23.992;2023-04-25T01:47:42;3.17;;;2.00;;
3249;SDS011;1637;42.020;23.992;2023-04-25T01:50:14;5.50;;;2.20;;
3249;SDS011;1637;42.020;23.992;2023-04-25T01:52:42;3.23;;;2.30;;
3249;SDS011;1637;42.020;23.992;2023-04-25T01:55:09;2.10;;;1.60;;
3249;SDS011;1637;42.020;23.992;2023-04-25T01:57:37;3.77;;;2.70;;
3249;SDS011;1637;42.020;23.992;2023-04-25T02:00:05;8.73;;;3.13;;
3249;SDS011;1637;42.020;23.992;2023-04-25T02:02:35;3.63;;;1.60;;
3249;SDS011;1637;42.020;23.992;2023-04-25T02:05:01;2.07;;;1.80;;
3249;SDS011;1637;42.020;23.992;2023-04-25T02:07:28;2.90;;;1.83;;
3249;SDS011;1637;42.020;23.992;2023-04-25T02:09:55;3.07;;;1.70;;
3249;SDS011;1637;42.020;23.992;2023-04-25T02:12:22;4.50;;;1.70;;
3249;SDS011;1637;42.020;23.992;2023-04-25T02:14:50;3.03;;;2.10;;
3249;SDS011;1637;42.020;23.992;2023-04-25T02:17:17;4.90;;;1.60;;
3249;SDS011;1637;42.020;23.992;2023-04-25T02:19:44;3.00;;;1.77;;
3249;SDS011;1637;42.020;23.992;2023-04-25T02:22:11;4.00;;;2.00;;
3249;SDS011;1637;42.020;23.992;2023-04-25T02:24:38;3.63;;;3.33;;
3249;SDS011;1637;42.020;23.992;2023-04-25T02:27:05;3.07;;;2.77;;
3249;SDS011;1637;42.020;23.992;2023-04-25T02:29:32;3.33;;;2.73;;
3249;SDS011;1637;42.020;23.992;2023-04-25T02:32:01;5.53;;;2.80;;
3249;SDS011;1637;42.020;23.992;2023-04-25T02:34:27;4.90;;;2.80;;
3249;SDS011;1637;42.020;23.992;2023-04-25T02:36:54;5.53;;;4.13;;
3249;SDS011;1637;42.020;23.992;2023-04-25T02:39:21;1.97;;;1.87;;
3249;SDS011;1637;42.020;23.992;2023-04-25T02:41:50;3.90;;;3.07;;
3249;SDS011;1637;42.020;23.992;2023-04-25T02:44:18;8.60;;;4.40;;
3249;SDS011;1637;42.020;23.992;2023-04-25T02:46:45;10.73;;;5.50;;
3249;SDS011;1637;42.020;23.992;2023-04-25T02:49:13;7.13;;;4.47;;
3249;SDS011;1637;42.020;23.992;2023-04-25T02:51:40;6.50;;;4.10;;
3249;SDS011;1637;42.020;23.992;2023-04-25T02:54:06;8.40;;;5.93;;
3249;SDS011;1637;42.020;23.992;2023-04-25T02:56:33;15.30;;;6.73;;
3249;SDS011;1637;42.020;23.992;2023-04-25T02:59:00;6.20;;;4.37;;
3249;SDS011;1637;42.020;23.992;2023-04-25T03:01:27;3.63;;;2.60;;
3249;SDS011;1637;42.020;23.992;2023-04-25T03:03:54;4.00;;;3.60;;
3249;SDS011;1637;42.020;23.992;2023-04-25T03:06:22;3.40;;;3.10;;
3249;SDS011;1637;42.020;23.992;2023-04-25T03:08:49;5.73;;;2.57;;
3249;SDS011;1637;42.020;23.992;2023-04-25T03:11:15;4.83;;;3.10;;
3249;SDS011;1637;42.020;23.992;2023-04-25T03:13:42;5.40;;;2.33;;
3249;SDS011;1637;42.020;23.992;2023-04-25T03:16:09;3.30;;;1.60;;
3249;SDS011;1637;42.020;23.992;2023-04-25T03:18:36;6.50;;;2.50;;
3249;SDS011;1637;42.020;23.992;2023-04-25T03:21:03;9.07;;;4.87;;
3249;SDS011;1637;42.020;23.992;2023-04-25T03:23:31;8.37;;;4.40;;
3249;SDS011;1637;42.020;23.992;2023-04-25T03:25:58;8.93;;;2.10;;
3249;SDS011;1637;42.020;23.992;2023-04-25T03:28:25;6.63;;;2.63;;
3249;SDS011;1637;42.020;23.992;2023-04-25T03:30:51;3.90;;;2.70;;
3249;SDS011;1637;42.020;23.992;2023-04-25T03:33:19;2.07;;;1.87;;
3249;SDS011;1637;42.020;23.992;2023-04-25T03:35:46;4.30;;;3.90;;
3249;SDS011;1637;42.020;23.992;2023-04-25T03:38:12;3.43;;;1.87;;
3249;SDS011;1637;42.020;23.992;2023-04-25T03:40:40;2.70;;;2.10;;
3249;SDS011;1637;42.020;23.992;2023-04-25T03:43:07;2.43;;;2.10;;
3249;SDS011;1637;42.020;23.992;2023-04-25T03:45:34;3.70;;;2.30;;
3249;SDS011;1637;42.020;23.992;2023-04-25T03:48:01;7.40;;;5.37;;
3249;SDS011;1637;42.020;23.992;2023-04-25T03:50:28;5.13;;;3.80;;
3249;SDS011;1637;42.020;23.992;2023-04-25T03:52:55;3.00;;;2.27;;
3249;SDS011;1637;42.020;23.992;2023-04-25T03:55:22;3.20;;;2.90;;
3249;SDS011;1637;42.020;23.992;2023-04-25T03:57:50;5.83;;;3.10;;
3249;SDS011;1637;42.020;23.992;2023-04-25T04:00:17;6.73;;;3.40;;
3249;SDS011;1637;42.020;23.992;2023-04-25T04:02:43;8.90;;;6.70;;
3249;SDS011;1637;42.020;23.992;2023-04-25T04:05:10;13.03;;;7.70;;
3249;SDS011;1637;42.020;23.992;2023-04-25T04:07:37;3.83;;;3.30;;
3249;SDS011;1637;42.020;23.992;2023-04-25T04:10:05;5.30;;;3.73;;
3249;SDS011;1637;42.020;23.992;2023-04-25T04:12:33;6.43;;;5.70;;
3249;SDS011;1637;42.020;23.992;2023-04-25T04:15:01;5.40;;;2.70;;
3249;SDS011;1637;42.020;23.992;2023-04-25T04:17:28;3.23;;;2.20;;
3249;SDS011;1637;42.020;23.992;2023-04-25T04:19:55;2.17;;;1.90;;
3249;SDS011;1637;42.020;23.992;2023-04-25T04:22:22;4.03;;;2.20;;
3249;SDS011;1637;42.020;23.992;2023-04-25T04:24:50;2.10;;;1.90;;
3249;SDS011;1637;42.020;23.992;2023-04-25T04:27:17;4.10;;;2.70;;
3249;SDS011;1637;42.020;23.992;2023-04-25T04:29:44;6.70;;;3.40;;
3249;SDS011;1637;42.020;23.992;2023-04-25T04:32:12;4.30;;;2.63;;
3249;SDS011;1637;42.020;23.992;2023-04-25T04:34:40;3.23;;;2.00;;
3249;SDS011;1637;42.020;23.992;2023-04-25T04:37:07;3.53;;;2.53;;
3249;SDS011;1637;42.020;23.992;2023-04-25T04:39:34;5.77;;;5.10;;
3249;SDS011;1637;42.020;23.992;2023-04-25T04:42:01;4.20;;;3.10;;
3249;SDS011;1637;42.020;23.992;2023-04-25T04:44:30;3.43;;;2.90;;
3249;SDS011;1637;42.020;23.992;2023-04-25T04:46:59;2.77;;;2.53;;
3249;SDS011;1637;42.020;23.992;2023-04-25T04:49:28;9.63;;;4.10;;
3249;SDS011;1637;42.020;23.992;2023-04-25T04:51:55;6.63;;;4.17;;
3249;SDS011;1637;42.020;23.992;2023-04-25T04:54:22;3.83;;;2.57;;
3249;SDS011;1637;42.020;23.992;2023-04-25T04:56:48;6.37;;;4.70;;
3249;SDS011;1637;42.020;23.992;2023-04-25T04:59:16;4.50;;;4.03;;
3249;SDS011;1637;42.020;23.992;2023-04-25T05:01:43;4.97;;;3.57;;
3249;SDS011;1637;42.020;23.992;2023-04-25T05:04:09;6.20;;;2.87;;
3249;SDS011;1637;42.020;23.992;2023-04-25T05:06:37;5.07;;;3.23;;
3249;SDS011;1637;42.020;23.992;2023-04-25T05:09:05;6.33;;;2.13;;
3249;SDS011;1637;42.020;23.992;2023-04-25T05:11:32;3.10;;;2.70;;
3249;SDS011;1637;42.020;23.992;2023-04-25T05:13:59;8.03;;;3.97;;
3249;SDS011;1637;42.020;23.992;2023-04-25T05:16:25;7.53;;;5.00;;
3249;SDS011;1637;42.020;23.992;2023-04-25T05:18:52;6.63;;;5.33;;
3249;SDS011;1637;42.020;23.992;2023-04-25T05:21:19;7.47;;;4.60;;
3249;SDS011;1637;42.020;23.992;2023-04-25T05:23:47;31.40;;;14.80;;
3249;SDS011;1637;42.020;23.992;2023-04-25T05:26:14;33.33;;;12.10;;
3249;SDS011;1637;42.020;23.992;2023-04-25T05:28:41;20.10;;;11.93;;
3249;SDS011;1637;42.020;23.992;2023-04-25T05:31:09;10.60;;;6.50;;
3249;SDS011;1637;42.020;23.992;2023-04-25T05:33:36;12.60;;;7.47;;
3249;SDS011;1637;42.020;23.992;2023-04-25T05:36:03;6.33;;;3.50;;
3249;SDS011;1637;42.020;23.992;2023-04-25T05:38:30;6.47;;;4.70;;
3249;SDS011;1637;42.020;23.992;2023-04-25T05:40:58;4.83;;;3.97;;
3249;SDS011;1637;42.020;23.992;2023-04-25T05:43:25;6.60;;;4.47;;
3249;SDS011;1637;42.020;23.992;2023-04-25T05:45:52;5.80;;;5.30;;
3249;SDS011;1637;42.020;23.992;2023-04-25T05:48:19;4.63;;;3.93;;
3249;SDS011;1637;42.020;23.992;2023-04-25T05:50:46;5.87;;;5.33;;
3249;SDS011;1637;42.020;23.992;2023-04-25T05:53:12;6.10;;;5.43;;
3249;SDS011;1637;42.020;23.992;2023-04-25T05:55:39;4.20;;;3.40;;
3249;SDS011;1637;42.020;23.992;2023-04-25T05:58:07;19.73;;;10.13;;
3249;SDS011;1637;42.020;23.992;2023-04-25T06:00:34;29.03;;;13.30;;
3249;SDS011;1637;42.020;23.992;2023-04-25T06:03:01;20.93;;;8.73;;
3249;SDS011;1637;42.020;23.992;2023-04-25T06:05:28;37.97;;;8.10;;
3249;SDS011;1637;42.020;23.992;2023-04-25T06:07:54;27.03;;;15.87;;
3249;SDS011;1637;42.020;23.992;2023-04-25T06:10:21;26.47;;;8.83;;
3249;SDS011;1637;42.020;23.992;2023-04-25T06:12:48;19.47;;;8.13;;
3249;SDS011;1637;42.020;23.992;2023-04-25T06:15:17;41.87;;;6.43;;
3249;SDS011;1637;42.020;23.992;2023-04-25T06:17:44;21.33;;;4.47;;
3249;SDS011;1637;42.020;23.992;2023-04-25T06:20:11;5.27;;;3.90;;
3249;SDS011;1637;42.020;23.992;2023-04-25T06:22:38;4.50;;;3.13;;
3249;SDS011;1637;42.020;23.992;2023-04-25T06:25:05;6.97;;;2.47;;
3249;SDS011;1637;42.020;23.992;2023-04-25T06:27:32;5.23;;;3.13;;
3249;SDS011;1637;42.020;23.992;2023-04-25T06:29:59;4.30;;;2.47;;
3249;SDS011;1637;42.020;23.992;2023-04-25T06:32:27;3.77;;;2.57;;
3249;SDS011;1637;42.020;23.992;2023-04-25T06:34:55;3.20;;;2.40;;
3249;SDS011;1637;42.020;23.992;2023-04-25T06:37:21;4.10;;;3.10;;
3249;SDS011;1637;42.020;23.992;2023-04-25T06:39:48;3.47;;;3.17;;
3249;SDS011;1637;42.020;23.992;2023-04-25T06:42:15;2.43;;;2.23;;
3249;SDS011;1637;42.020;23.992;2023-04-25T06:44:42;3.10;;;1.80;;
3249;SDS011;1637;42.020;23.992;2023-04-25T06:47:09;3.57;;;2.00;;
3249;SDS011;1637;42.020;23.992;2023-04-25T06:49:37;4.50;;;3.10;;
3249;SDS011;1637;42.020;23.992;2023-04-25T06:52:04;3.77;;;2.50;;
3249;SDS011;1637;42.020;23.992;2023-04-25T06:54:30;2.60;;;2.00;;
3249;SDS011;1637;42.020;23.992;2023-04-25T06:56:57;4.57;;;2.87;;
3249;SDS011;1637;42.020;23.992;2023-04-25T06:59:25;4.90;;;2.07;;
3249;SDS011;1637;42.020;23.992;2023-04-25T07:01:52;8.13;;;3.03;;
3249;SDS011;1637;42.020;23.992;2023-04-25T07:04:19;19.20;;;5.50;;
3249;SDS011;1637;42.020;23.992;2023-04-25T07:06:47;29.33;;;5.80;;
3249;SDS011;1637;42.020;23.992;2023-04-25T07:09:14;4.20;;;2.60;;
3249;SDS011;1637;42.020;23.992;2023-04-25T07:11:41;12.13;;;4.53;;
3249;SDS011;1637;42.020;23.992;2023-04-25T07:14:08;33.37;;;6.43;;
3249;SDS011;1637;42.020;23.992;2023-04-25T07:16:35;14.30;;;3.67;;
3249;SDS011;1637;42.020;23.992;2023-04-25T07:19:02;11.10;;;3.90;;
3249;SDS011;1637;42.020;23.992;2023-04-25T07:21:28;2.90;;;2.30;;
3249;SDS011;1637;42.020;23.992;2023-04-25T07:23:57;16.87;;;3.77;;
3249;SDS011;1637;42.020;23.992;2023-04-25T07:26:24;8.63;;;3.37;;
3249;SDS011;1637;42.020;23.992;2023-04-25T07:28:51;23.30;;;6.30;;
3249;SDS011;1637;42.020;23.992;2023-04-25T07:31:18;13.00;;;5.70;;
3249;SDS011;1637;42.020;23.992;2023-04-25T07:33:44;2.87;;;2.57;;
3249;SDS011;1637;42.020;23.992;2023-04-25T07:36:11;2.50;;;2.30;;
3249;SDS011;1637;42.020;23.992;2023-04-25T07:38:40;2.10;;;1.90;;
3249;SDS011;1637;42.020;23.992;2023-04-25T07:41:08;2.30;;;2.07;;
3249;SDS011;1637;42.020;23.992;2023-04-25T07:43:35;2.50;;;2.30;;
3249;SDS011;1637;42.020;23.992;2023-04-25T07:46:02;13.80;;;3.57;;
3249;SDS011;1637;42.020;23.992;2023-04-25T07:48:28;2.57;;;1.53;;
3249;SDS011;1637;42.020;23.992;2023-04-25T07:50:55;4.37;;;2.23;;
3249;SDS011;1637;42.020;23.992;2023-04-25T07:53:22;3.27;;;2.30;;
3249;SDS011;1637;42.020;23.992;2023-04-25T07:55:49;1.90;;;1.70;;
3249;SDS011;1637;42.020;23.992;2023-04-25T07:58:18;7.10;;;3.77;;
3249;SDS011;1637;42.020;23.992;2023-04-25T08:00:46;8.47;;;4.80;;
3249;SDS011;1637;42.020;23.992;2023-04-25T08:03:13;5.43;;;2.83;;
3249;SDS011;1637;42.020;23.992;2023-04-25T08:05:40;3.63;;;1.53;;
3249;SDS011;1637;42.020;23.992;2023-04-25T08:08:07;5.23;;;2.47;;
3249;SDS011;1637;42.020;23.992;2023-04-25T08:10:34;7.70;;;3.50;;
3249;SDS011;1637;42.020;23.992;2023-04-25T08:13:01;3.33;;;1.67;;
3249;SDS011;1637;42.020;23.992;2023-04-25T08:15:29;11.60;;;2.50;;
3249;SDS011;1637;42.020;23.992;2023-04-25T08:17:56;3.53;;;2.10;;
3249;SDS011;1637;42.020;23.992;2023-04-25T08:20:23;2.20;;;1.90;;
3249;SDS011;1637;42.020;23.992;2023-04-25T08:22:50;13.10;;;3.73;;
3249;SDS011;1637;42.020;23.992;2023-04-25T08:25:16;10.30;;;3.90;;
3249;SDS011;1637;42.020;23.992;2023-04-25T08:27:43;16.83;;;4.67;;
3249;SDS011;1637;42.020;23.992;2023-04-25T08:30:10;17.73;;;4.77;;
3249;SDS011;1637;42.020;23.992;2023-04-25T08:32:39;4.90;;;2.40;;
3249;SDS011;1637;42.020;23.992;2023-04-25T08:35:06;15.57;;;2.73;;
3249;SDS011;1637;42.020;23.992;2023-04-25T08:37:33;9.53;;;1.87;;
3249;SDS011;1637;42.020;23.992;2023-04-25T08:40:01;2.03;;;1.67;;
3249;SDS011;1637;42.020;23.992;2023-04-25T08:42:32;9.30;;;3.80;;
3249;SDS011;1637;42.020;23.992;2023-04-25T08:45:00;13.20;;;5.27;;
3249;SDS011;1637;42.020;23.992;2023-04-25T08:47:28;7.93;;;3.90;;
3249;SDS011;1637;42.020;23.992;2023-04-25T08:49:57;10.80;;;4.10;;
3249;SDS011;1637;42.020;23.992;2023-04-25T08:52:27;8.30;;;2.83;;
3249;SDS011;1637;42.020;23.992;2023-04-25T08:54:56;5.70;;;2.10;;
3249;SDS011;1637;42.020;23.992;2023-04-25T08:57:23;7.53;;;3.37;;
3249;SDS011;1637;42.020;23.992;2023-04-25T08:59:51;1.43;;;1.23;;
3249;SDS011;1637;42.020;23.992;2023-04-25T09:02:19;5.60;;;2.50;;
3249;SDS011;1637;42.020;23.992;2023-04-25T09:04:46;3.50;;;2.67;;
3249;SDS011;1637;42.020;23.992;2023-04-25T09:07:15;8.93;;;2.10;;
3249;SDS011;1637;42.020;23.992;2023-04-25T09:09:46;8.43;;;2.10;;
3249;SDS011;1637;42.020;23.992;2023-04-25T09:12:13;7.90;;;1.40;;
3249;SDS011;1637;42.020;23.992;2023-04-25T09:14:39;2.93;;;1.40;;
3249;SDS011;1637;42.020;23.992;2023-04-25T09:17:07;4.93;;;2.50;;
3249;SDS011;1637;42.020;23.992;2023-04-25T09:19:34;8.53;;;3.80;;
3249;SDS011;1637;42.020;23.992;2023-04-25T09:22:04;3.47;;;2.63;;
3249;SDS011;1637;42.020;23.992;2023-04-25T09:24:34;17.97;;;9.87;;
3249;SDS011;1637;42.020;23.992;2023-04-25T09:27:05;7.10;;;2.00;;
3249;SDS011;1637;42.020;23.992;2023-04-25T09:29:33;1.70;;;1.40;;
3249;SDS011;1637;42.020;23.992;2023-04-25T09:32:15;8.30;;;4.10;;
3249;SDS011;1637;42.020;23.992;2023-04-25T09:34:44;3.10;;;1.63;;
3249;SDS011;1637;42.020;23.992;2023-04-25T09:37:16;4.90;;;2.00;;
3249;SDS011;1637;42.020;23.992;2023-04-25T09:39:46;4.47;;;1.50;;
3249;SDS011;1637;42.020;23.992;2023-04-25T09:42:13;3.83;;;1.47;;
3249;SDS011;1637;42.020;23.992;2023-04-25T09:44:42;3.37;;;1.10;;
3249;SDS011;1637;42.020;23.992;2023-04-25T09:47:10;6.00;;;1.50;;
3249;SDS011;1637;42.020;23.992;2023-04-25T09:49:38;9.60;;;3.47;;
3249;SDS011;1637;42.020;23.992;2023-04-25T09:52:07;3.00;;;1.70;;
3249;SDS011;1637;42.020;23.992;2023-04-25T09:54:34;1.57;;;1.13;;
3249;SDS011;1637;42.020;23.992;2023-04-25T09:57:03;3.43;;;2.27;;
3249;SDS011;1637;42.020;23.992;2023-04-25T09:59:38;2.10;;;1.70;;
3249;SDS011;1637;42.020;23.992;2023-04-25T10:02:06;2.60;;;1.50;;
3249;SDS011;1637;42.020;23.992;2023-04-25T10:04:35;2.23;;;0.90;;
3249;SDS011;1637;42.020;23.992;2023-04-25T10:07:04;4.47;;;1.10;;
3249;SDS011;1637;42.020;23.992;2023-04-25T10:09:33;2.00;;;0.90;;
3249;SDS011;1637;42.020;23.992;2023-04-25T10:12:03;4.73;;;1.50;;
3249;SDS011;1637;42.020;23.992;2023-04-25T10:14:31;1.93;;;1.50;;
3249;SDS011;1637;42.020;23.992;2023-04-25T10:16:58;2.50;;;0.60;;
3249;SDS011;1637;42.020;23.992;2023-04-25T10:19:25;1.97;;;0.83;;
3249;SDS011;1637;42.020;23.992;2023-04-25T10:21:52;2.13;;;1.50;;
3249;SDS011;1637;42.020;23.992;2023-04-25T10:24:24;1.20;;;0.90;;
3249;SDS011;1637;42.020;23.992;2023-04-25T10:26:52;1.40;;;1.00;;
3249;SDS011;1637;42.020;23.992;2023-04-25T10:29:23;8.63;;;1.00;;
3249;SDS011;1637;42.020;23.992;2023-04-25T10:31:51;1.80;;;1.33;;
3249;SDS011;1637;42.020;23.992;2023-04-25T10:34:18;11.43;;;1.87;;
3249;SDS011;1637;42.020;23.992;2023-04-25T10:36:49;1.10;;;0.80;;
3249;SDS011;1637;42.020;23.992;2023-04-25T10:39:21;4.67;;;1.93;;
3249;SDS011;1637;42.020;23.992;2023-04-25T10:41:52;3.37;;;1.20;;
3249;SDS011;1637;42.020;23.992;2023-04-25T10:44:21;2.10;;;1.20;;
3249;SDS011;1637;42.020;23.992;2023-04-25T10:46:49;5.73;;;1.37;;
3249;SDS011;1637;42.020;23.992;2023-04-25T10:54:53;1.57;;;0.93;;
3249;SDS011;1637;42.020;23.992;2023-04-25T10:57:28;1.20;;;0.90;;
3249;SDS011;1637;42.020;23.992;2023-04-25T11:00:04;2.07;;;1.00;;
3249;SDS011;1637;42.020;23.992;2023-04-25T11:02:37;1.87;;;0.70;;
3249;SDS011;1637;42.020;23.992;2023-04-25T11:05:08;1.00;;;0.87;;
3249;SDS011;1637;42.020;23.992;2023-04-25T11:07:38;3.07;;;1.20;;
3249;SDS011;1637;42.020;23.992;2023-04-25T11:10:09;1.70;;;0.90;;
3249;SDS011;1637;42.020;23.992;2023-04-25T11:12:36;2.60;;;0.87;;
3249;SDS011;1637;42.020;23.992;2023-04-25T11:15:03;1.80;;;1.30;;
3249;SDS011;1637;42.020;23.992;2023-04-25T11:17:32;4.20;;;1.20;;
3249;SDS011;1637;42.020;23.992;2023-04-25T11:20:00;5.87;;;1.30;;
3249;SDS011;1637;42.020;23.992;2023-04-25T11:22:31;3.00;;;2.40;;
3249;SDS011;1637;42.020;23.992;2023-04-25T11:24:58;2.50;;;1.63;;
3249;SDS011;1637;42.020;23.992;2023-04-25T11:27:30;5.13;;;1.30;;
3249;SDS011;1637;42.020;23.992;2023-04-25T11:29:57;1.73;;;1.07;;
3249;SDS011;1637;42.020;23.992;2023-04-25T11:32:24;1.87;;;1.30;;
3249;SDS011;1637;42.020;23.992;2023-04-25T11:34:52;6.83;;;1.10;;
3249;SDS011;1637;42.020;23.992;2023-04-25T11:37:20;2.63;;;1.60;;
3249;SDS011;1637;42.020;23.992;2023-04-25T11:39:47;7.83;;;3.17;;
3249;SDS011;1637;42.020;23.992;2023-04-25T11:42:14;1.83;;;1.40;;
3249;SDS011;1637;42.020;23.992;2023-04-25T11:44:41;5.97;;;2.40;;
3249;SDS011;1637;42.020;23.992;2023-04-25T11:47:08;3.60;;;2.37;;
3249;SDS011;1637;42.020;23.992;2023-04-25T11:49:35;15.03;;;6.23;;
3249;SDS011;1637;42.020;23.992;2023-04-25T11:52:02;10.47;;;3.60;;
3249;SDS011;1637;42.020;23.992;2023-04-25T11:54:30;12.83;;;4.50;;
3249;SDS011;1637;42.020;23.992;2023-04-25T11:56:57;35.20;;;12.70;;
3249;SDS011;1637;42.020;23.992;2023-04-25T11:59:24;26.80;;;9.10;;
3249;SDS011;1637;42.020;23.992;2023-04-25T12:01:51;15.23;;;4.20;;
3249;SDS011;1637;42.020;23.992;2023-04-25T12:04:19;52.23;;;14.70;;
3249;SDS011;1637;42.020;23.992;2023-04-25T12:06:48;21.70;;;8.63;;
3249;SDS011;1637;42.020;23.992;2023-04-25T12:09:16;56.43;;;20.27;;
3249;SDS011;1637;42.020;23.992;2023-04-25T12:11:46;56.43;;;23.60;;
3249;SDS011;1637;42.020;23.992;2023-04-25T12:14:20;3.53;;;2.30;;
3249;SDS011;1637;42.020;23.992;2023-04-25T12:16:49;2.20;;;2.00;;
3249;SDS011;1637;42.020;23.992;2023-04-25T12:19:17;3.33;;;1.67;;
3249;SDS011;1637;42.020;23.992;2023-04-25T12:21:45;1.60;;;1.50;;
3249;SDS011;1637;42.020;23.992;2023-04-25T12:24:12;3.83;;;1.30;;
3249;SDS011;1637;42.020;23.992;2023-04-25T12:26:52;7.03;;;1.73;;
3249;SDS011;1637;42.020;23.992;2023-04-25T12:29:20;3.83;;;1.70;;
3249;SDS011;1637;42.020;23.992;2023-04-25T12:31:48;5.30;;;1.77;;
3249;SDS011;1637;42.020;23.992;2023-04-25T12:34:15;3.53;;;1.53;;
3249;SDS011;1637;42.020;23.992;2023-04-25T12:36:42;6.27;;;2.07;;
3249;SDS011;1637;42.020;23.992;2023-04-25T12:39:13;2.20;;;1.87;;
3249;SDS011;1637;42.020;23.992;2023-04-25T12:41:41;10.40;;;5.67;;
3249;SDS011;1637;42.020;23.992;2023-04-25T12:44:09;2.10;;;1.77;;
3249;SDS011;1637;42.020;23.992;2023-04-25T12:46:36;7.13;;;1.30;;
3249;SDS011;1637;42.020;23.992;2023-04-25T12:49:03;2.67;;;0.80;;
3249;SDS011;1637;42.020;23.992;2023-04-25T12:51:31;4.27;;;1.70;;
3249;SDS011;1637;42.020;23.992;2023-04-25T12:53:58;4.00;;;1.70;;
3249;SDS011;1637;42.020;23.992;2023-04-25T12:56:25;5.90;;;2.20;;
3249;SDS011;1637;42.020;23.992;2023-04-25T12:58:52;1.73;;;1.33;;
3249;SDS011;1637;42.020;23.992;2023-04-25T13:01:20;0.97;;;0.83;;
3249;SDS011;1637;42.020;23.992;2023-04-25T13:03:47;1.83;;;0.80;;
3249;SDS011;1637;42.020;23.992;2023-04-25T13:06:15;7.30;;;1.53;;
3249;SDS011;1637;42.020;23.992;2023-04-25T13:08:42;5.87;;;2.00;;
3249;SDS011;1637;42.020;23.992;2023-04-25T13:11:09;1.67;;;1.10;;
3249;SDS011;1637;42.020;23.992;2023-04-25T13:13:36;1.50;;;1.30;;
3249;SDS011;1637;42.020;23.992;2023-04-25T13:16:04;6.33;;;2.00;;
3249;SDS011;1637;42.020;23.992;2023-04-25T13:18:33;3.67;;;1.03;;
3249;SDS011;1637;42.020;23.992;2023-04-25T13:21:00;17.10;;;2.53;;
3249;SDS011;1637;42.020;23.992;2023-04-25T13:23:28;3.43;;;2.27;;
3249;SDS011;1637;42.020;23.992;2023-04-25T13:25:56;13.00;;;5.20;;
3249;SDS011;1637;42.020;23.992;2023-04-25T13:28:23;6.50;;;2.57;;
3249;SDS011;1637;42.020;23.992;2023-04-25T13:30:50;2.20;;;1.10;;
3249;SDS011;1637;42.020;23.992;2023-04-25T13:33:17;1.10;;;0.90;;
3249;SDS011;1637;42.020;23.992;2023-04-25T13:35:46;4.13;;;2.20;;
3249;SDS011;1637;42.020;23.992;2023-04-25T13:38:19;1.90;;;0.70;;
3249;SDS011;1637;42.020;23.992;2023-04-25T13:40:47;1.20;;;1.10;;
3249;SDS011;1637;42.020;23.992;2023-04-25T13:43:13;1.30;;;1.10;;
3249;SDS011;1637;42.020;23.992;2023-04-25T13:45:40;2.80;;;1.23;;
3249;SDS011;1637;42.020;23.992;2023-04-25T13:48:07;1.30;;;0.80;;
3249;SDS011;1637;42.020;23.992;2023-04-25T13:50:34;1.60;;;1.50;;
3249;SDS011;1637;42.020;23.992;2023-04-25T13:53:02;15.57;;;5.90;;
3249;SDS011;1637;42.020;23.992;2023-04-25T13:55:29;46.50;;;11.93;;
3249;SDS011;1637;42.020;23.992;2023-04-25T13:57:56;18.40;;;8.37;;
3249;SDS011;1637;42.020;23.992;2023-04-25T14:00:23;8.73;;;5.57;;
3249;SDS011;1637;42.020;23.992;2023-04-25T14:02:50;4.27;;;2.10;;
3249;SDS011;1637;42.020;23.992;2023-04-25T14:05:17;5.13;;;1.87;;
3249;SDS011;1637;42.020;23.992;2023-04-25T14:07:44;3.90;;;2.23;;
3249;SDS011;1637;42.020;23.992;2023-04-25T14:10:12;8.13;;;4.87;;
3249;SDS011;1637;42.020;23.992;2023-04-25T14:12:39;5.17;;;3.70;;
3249;SDS011;1637;42.020;23.992;2023-04-25T14:15:06;15.43;;;3.80;;
3249;SDS011;1637;42.020;23.992;2023-04-25T14:17:33;3.77;;;1.97;;
3249;SDS011;1637;42.020;23.992;2023-04-25T14:20:00;8.33;;;2.60;;
3249;SDS011;1637;42.020;23.992;2023-04-25T14:22:27;2.63;;;1.67;;
3249;SDS011;1637;42.020;23.992;2023-04-25T14:24:53;2.20;;;1.67;;
3249;SDS011;1637;42.020;23.992;2023-04-25T14:27:22;1.77;;;1.60;;
3249;SDS011;1637;42.020;23.992;2023-04-25T14:29:48;2.67;;;1.40;;
3249;SDS011;1637;42.020;23.992;2023-04-25T14:32:15;9.37;;;4.70;;
3249;SDS011;1637;42.020;23.992;2023-04-25T14:34:42;9.83;;;5.30;;
3249;SDS011;1637;42.020;23.992;2023-04-25T14:37:09;11.60;;;6.70;;
3249;SDS011;1637;42.020;23.992;2023-04-25T14:39:36;16.47;;;10.10;;
3249;SDS011;1637;42.020;23.992;2023-04-25T14:42:03;6.60;;;4.13;;
3249;SDS011;1637;42.020;23.992;2023-04-25T14:44:31;1.90;;;1.60;;
3249;SDS011;1637;42.020;23.992;2023-04-25T14:46:58;8.10;;;5.90;;
3249;SDS011;1637;42.020;23.992;2023-04-25T14:49:25;5.80;;;4.70;;
3249;SDS011;1637;42.020;23.992;2023-04-25T14:51:53;6.37;;;3.93;;
3249;SDS011;1637;42.020;23.992;2023-04-25T14:54:20;5.03;;;3.50;;
3249;SDS011;1637;42.020;23.992;2023-04-25T14:56:46;2.57;;;1.73;;
3249;SDS011;1637;42.020;23.992;2023-04-25T14:59:13;4.10;;;2.53;;
3249;SDS011;1637;42.020;23.992;2023-04-25T15:01:41;3.17;;;1.60;;
3249;SDS011;1637;42.020;23.992;2023-04-25T15:04:09;5.90;;;4.00;;
3249;SDS011;1637;42.020;23.992;2023-04-25T15:06:35;22.63;;;2.20;;